Accueil
METAR-TAF:

METAR-TAF

Aéroports :

Aéroport de Trapani

Trapani, Italie

latitude: 37-55N, longitude: 012-30E, altitude: 7 m

Observation

Le bulletin a été fait il y a 38 minutes, à 21:55 UTC
Vent 18 kt de sud
Température 30°C
Humidité 62%
Pression 1013 hPa
Visibilité 10 km ou plus
pas de nuages en-dessous de 1500 mètres et pas de cumulonimbus.

METAR: LICT 032155Z 17018KT CAVOK 30/22 Q1013 RMK SKC VIS MIN 9999 WIND THR13 17013KT BLU

Heure: 00:33 (22:33 UTC)

Prévision

Le bulletin a été fait il y a 2 heures et 33 minutes, à 20:00 UTC
Prévision valable du 03 à 21 UTC au 04 à 06 UTC
Vent 10 kt de sud
Visibilité 10 km ou plus
Quelques nuages à une hauteur de 3000 ft

TAF: LICT 032000Z 0321/0406 17010KT 9999 FEW030

Observations et prévisions météorologiques de plus de 4000 aéroports (messages METAR et TAF).

Les stations disponibles sont représentées par des disques jaunes et rouges sur la carte.

Passer la souris dessus pour voir le nom de la station.

Cliquer dessus pour voir les observations et prévisions météorologiques.

Pour changer de carte: cliquez sur les boutons verts avec une croix noire pour zoomer, sur le bouton vert avec un tiret pour effectuer un zoom arrière, ou sur les flèches vertes pour les cartes adjacentes.


METAR-TAF: